createdAt,value
2022-08-03T00:02:19.723Z,28.82
2022-08-03T00:04:48.083Z,28.80
2022-08-03T00:07:15.921Z,28.77
2022-08-03T00:09:43.688Z,28.75
2022-08-03T00:12:11.790Z,28.72
2022-08-03T00:14:39.624Z,28.70
2022-08-03T00:17:07.519Z,28.68
2022-08-03T00:19:35.489Z,28.67
2022-08-03T00:22:03.233Z,28.65
2022-08-03T00:24:31.470Z,28.63
2022-08-03T00:26:59.513Z,28.61
2022-08-03T00:29:27.468Z,28.58
2022-08-03T00:31:59.522Z,28.56
2022-08-03T00:34:36.572Z,28.55
2022-08-03T00:37:16.556Z,28.58
2022-08-03T00:39:46.487Z,28.58
2022-08-03T00:42:14.742Z,28.54
2022-08-03T00:44:44.510Z,28.51
2022-08-03T00:47:13.262Z,28.48
2022-08-03T00:49:42.244Z,28.44
2022-08-03T00:52:11.016Z,28.43
2022-08-03T00:54:39.431Z,28.42
2022-08-03T00:57:08.311Z,28.39
2022-08-03T00:59:38.270Z,28.36
2022-08-03T01:02:06.773Z,28.32
2022-08-03T01:04:34.494Z,28.31
2022-08-03T01:07:14.806Z,28.29
2022-08-03T01:09:58.260Z,28.27
2022-08-03T01:12:49.484Z,28.27
2022-08-03T01:15:28.949Z,28.27
2022-08-03T01:18:00.811Z,28.25
2022-08-03T01:20:33.877Z,28.24
2022-08-03T01:23:38.699Z,28.22
2022-08-03T01:26:13.048Z,28.22
2022-08-03T01:29:18.573Z,28.16
2022-08-03T01:32:58.801Z,28.16
2022-08-03T01:34:47.845Z,28.16
2022-08-03T01:37:22.269Z,28.17
2022-08-03T01:39:53.762Z,28.15
2022-08-03T01:42:25.165Z,28.13
2022-08-03T01:44:53.542Z,28.13
2022-08-03T01:47:22.851Z,28.11
2022-08-03T01:49:52.439Z,28.08
2022-08-03T01:52:22.002Z,28.08
2022-08-03T01:54:51.651Z,28.05
2022-08-03T01:57:20.305Z,28.05
2022-08-03T01:59:49.991Z,28.05
2022-08-03T02:02:32.779Z,28.03
2022-08-03T02:05:04.869Z,28.06
2022-08-03T02:07:34.398Z,28.08
2022-08-03T02:10:05.969Z,28.06
2022-08-03T02:12:35.464Z,28.04
2022-08-03T02:15:03.553Z,28.03
2022-08-03T02:17:39.020Z,28.02
2022-08-03T02:20:11.764Z,28.01
2022-08-03T02:22:41.091Z,28.01
2022-08-03T02:25:11.074Z,27.99
2022-08-03T02:27:44.169Z,27.97
2022-08-03T02:30:14.475Z,27.95
2022-08-03T02:32:44.500Z,27.93
2022-08-03T02:35:13.992Z,27.91
2022-08-03T02:37:45.109Z,27.89
2022-08-03T02:40:19.792Z,27.88
2022-08-03T02:42:50.435Z,27.86
2022-08-03T02:45:18.792Z,27.84
2022-08-03T02:47:53.306Z,27.81
2022-08-03T02:50:23.962Z,27.80
2022-08-03T02:52:53.392Z,27.79
2022-08-03T02:55:22.981Z,27.78
2022-08-03T02:57:51.848Z,27.75
2022-08-03T03:00:28.090Z,27.74
2022-08-03T03:02:58.729Z,27.73
2022-08-03T03:05:51.619Z,27.72
2022-08-03T03:08:26.127Z,27.73
2022-08-03T03:10:58.588Z,27.75
2022-08-03T03:13:28.929Z,27.73
2022-08-03T03:15:57.926Z,27.70
2022-08-03T03:18:28.844Z,27.67
2022-08-03T03:20:56.891Z,27.66
2022-08-03T03:23:25.399Z,27.64
2022-08-03T03:25:53.773Z,27.62
2022-08-03T03:28:22.871Z,27.60
2022-08-03T03:30:53.465Z,27.59
2022-08-03T03:33:22.605Z,27.58
2022-08-03T03:35:51.957Z,27.57
2022-08-03T03:38:20.434Z,27.57
2022-08-03T03:40:48.660Z,27.56
2022-08-03T03:43:18.651Z,27.55
2022-08-03T03:45:48.133Z,27.54
2022-08-03T03:48:16.248Z,27.54
2022-08-03T03:50:44.467Z,27.55
2022-08-03T03:53:13.563Z,27.56
2022-08-03T03:55:59.421Z,27.55
2022-08-03T03:58:31.277Z,27.59
2022-08-03T04:00:59.781Z,27.63
2022-08-03T04:03:27.842Z,27.61
2022-08-03T04:06:14.226Z,27.63
2022-08-03T04:09:00.376Z,27.69
2022-08-03T04:11:33.342Z,27.78
2022-08-03T04:14:07.058Z,27.83
2022-08-03T04:16:43.137Z,27.91
2022-08-03T04:19:19.786Z,27.98
2022-08-03T04:21:53.435Z,28.05
2022-08-03T04:24:30.144Z,28.11
2022-08-03T04:26:59.511Z,28.14
2022-08-03T04:29:29.544Z,28.18
2022-08-03T04:31:59.051Z,28.21
2022-08-03T04:34:27.774Z,28.25
2022-08-03T04:37:00.126Z,28.28
2022-08-03T04:39:31.104Z,28.32
2022-08-03T04:42:16.933Z,28.36
2022-08-03T04:44:46.442Z,28.44
2022-08-03T04:47:14.410Z,28.51
2022-08-03T04:49:42.892Z,28.52
2022-08-03T04:52:11.352Z,28.53
2022-08-03T04:54:42.463Z,28.55
2022-08-03T04:57:22.411Z,28.58
2022-08-03T05:00:01.336Z,28.68
2022-08-03T05:02:31.341Z,28.76
2022-08-03T05:04:59.713Z,28.82
2022-08-03T05:07:35.926Z,28.83
2022-08-03T05:10:11.715Z,28.89
2022-08-03T05:12:43.762Z,28.93
2022-08-03T05:15:12.127Z,28.97
2022-08-03T05:17:40.110Z,29.35
2022-08-03T05:20:08.959Z,29.74
2022-08-03T05:22:36.711Z,29.76
2022-08-03T05:25:05.330Z,29.60
2022-08-03T05:27:33.114Z,29.51
2022-08-03T05:30:32.321Z,29.47
2022-08-03T05:32:48.709Z,29.44
2022-08-03T05:36:02.595Z,29.42
2022-08-03T05:38:04.543Z,29.54
2022-08-03T05:40:33.711Z,29.86
2022-08-03T05:43:01.917Z,30.16
2022-08-03T05:45:29.726Z,30.36
2022-08-03T05:47:57.480Z,30.53
2022-08-03T05:50:25.259Z,30.67
2022-08-03T05:52:57.675Z,30.78
2022-08-03T05:55:26.217Z,30.66
2022-08-03T05:57:56.712Z,30.34
2022-08-03T06:00:25.717Z,30.10
2022-08-03T06:02:53.683Z,29.92
2022-08-03T06:05:21.573Z,29.79
2022-08-03T06:07:49.403Z,29.74
2022-08-03T06:10:36.726Z,29.67
2022-08-03T06:13:05.483Z,29.63
2022-08-03T06:15:35.515Z,29.60
2022-08-03T06:18:03.471Z,29.57
2022-08-03T06:20:31.281Z,29.53
2022-08-03T06:23:01.278Z,29.50
2022-08-03T06:25:29.528Z,29.48
2022-08-03T06:27:57.312Z,29.46
2022-08-03T06:30:25.761Z,29.43
2022-08-03T06:32:53.584Z,29.47
2022-08-03T06:35:21.478Z,29.46
2022-08-03T06:37:50.747Z,29.47
2022-08-03T06:40:24.456Z,29.48
2022-08-03T06:42:52.551Z,29.47
2022-08-03T06:45:20.401Z,29.47
2022-08-03T06:47:48.343Z,29.44
2022-08-03T06:50:17.816Z,29.46
2022-08-03T06:52:46.410Z,29.46
2022-08-03T06:55:14.166Z,29.47
2022-08-03T06:57:42.027Z,29.48
2022-08-03T07:00:12.720Z,29.48
2022-08-03T07:02:41.561Z,29.51
2022-08-03T07:05:10.733Z,29.49
2022-08-03T07:07:38.563Z,29.48
2022-08-03T07:10:07.401Z,29.48
2022-08-03T07:12:35.876Z,29.50
2022-08-03T07:15:05.521Z,29.50
2022-08-03T07:17:35.394Z,29.54
2022-08-03T07:20:06.797Z,29.55
2022-08-03T07:22:35.599Z,29.56
2022-08-03T07:25:05.304Z,29.56
2022-08-03T07:27:33.902Z,29.56
2022-08-03T07:30:01.978Z,29.63
2022-08-03T07:32:31.790Z,29.63
2022-08-03T07:35:01.121Z,29.61
2022-08-03T07:37:30.466Z,29.61
2022-08-03T07:39:58.849Z,29.61
2022-08-03T07:42:29.067Z,29.62
2022-08-03T07:44:58.043Z,29.61
2022-08-03T07:47:34.921Z,29.61
2022-08-03T07:50:06.203Z,29.62
2022-08-03T07:52:49.754Z,29.65
2022-08-03T07:55:20.799Z,29.66
2022-08-03T07:58:02.976Z,29.65
2022-08-03T08:00:31.372Z,29.68
2022-08-03T08:02:59.181Z,29.73
2022-08-03T08:05:28.137Z,29.71
2022-08-03T08:07:55.928Z,29.69
2022-08-03T08:10:23.929Z,29.70
2022-08-03T08:12:51.854Z,29.72
2022-08-03T08:15:19.849Z,29.72
2022-08-03T08:17:50.188Z,29.73
2022-08-03T08:20:27.898Z,29.76
2022-08-03T08:22:58.262Z,29.77
2022-08-03T08:25:30.358Z,29.78
2022-08-03T08:28:29.064Z,29.77
2022-08-03T08:30:50.098Z,29.82
2022-08-03T08:33:23.018Z,29.85
2022-08-03T08:35:53.568Z,29.82
2022-08-03T08:38:22.378Z,29.82
2022-08-03T08:40:50.895Z,29.81
2022-08-03T08:43:18.864Z,29.81
2022-08-03T08:45:51.048Z,29.81
2022-08-03T08:48:23.694Z,29.79
2022-08-03T08:50:56.167Z,29.81
2022-08-03T08:53:28.918Z,29.83
2022-08-03T08:56:03.283Z,29.83
2022-08-03T08:58:35.483Z,29.82
2022-08-03T09:01:04.243Z,29.83
2022-08-03T09:03:34.342Z,29.83
2022-08-03T09:06:02.966Z,29.82
2022-08-03T09:08:32.677Z,29.81
2022-08-03T09:11:00.887Z,29.80
2022-08-03T09:13:29.468Z,29.80
2022-08-03T09:16:16.254Z,29.80
2022-08-03T09:18:49.261Z,29.82
2022-08-03T09:21:33.942Z,29.83
2022-08-03T09:24:12.985Z,29.84
2022-08-03T09:26:50.495Z,29.87
2022-08-03T09:29:20.915Z,29.88
2022-08-03T09:31:48.657Z,29.88
2022-08-03T09:34:17.681Z,29.88
2022-08-03T09:36:46.844Z,29.87
2022-08-03T09:39:17.536Z,29.87
2022-08-03T09:41:48.696Z,29.86
2022-08-03T09:44:25.816Z,29.87
2022-08-03T09:46:58.080Z,29.89
2022-08-03T09:49:26.019Z,29.90
2022-08-03T09:52:33.145Z,29.89
2022-08-03T09:54:43.515Z,29.92
2022-08-03T09:57:22.853Z,29.95
2022-08-03T09:59:55.003Z,29.93
2022-08-03T10:02:33.088Z,29.92
2022-08-03T10:05:01.058Z,29.94
2022-08-03T10:07:28.943Z,29.91
2022-08-03T10:10:29.133Z,29.92
2022-08-03T10:12:50.894Z,29.98
2022-08-03T10:16:23.005Z,30.00
2022-08-03T10:18:06.898Z,30.01
2022-08-03T10:20:50.635Z,30.01
2022-08-03T10:23:19.853Z,30.03
2022-08-03T10:25:49.936Z,30.06
2022-08-03T10:28:20.109Z,30.08
2022-08-03T10:30:50.477Z,30.09
2022-08-03T10:33:51.764Z,30.10
2022-08-03T10:36:13.863Z,30.12
2022-08-03T10:38:47.978Z,30.14
2022-08-03T10:41:22.956Z,30.16
2022-08-03T10:43:55.206Z,30.15
2022-08-03T10:46:23.281Z,30.14
2022-08-03T10:48:52.899Z,30.13
2022-08-03T10:51:21.070Z,30.11
2022-08-03T10:53:55.541Z,30.11
2022-08-03T10:56:51.994Z,30.12
2022-08-03T10:59:22.987Z,30.14
2022-08-03T11:01:59.822Z,30.13
2022-08-03T11:04:30.514Z,30.14
2022-08-03T11:07:17.473Z,30.16
2022-08-03T11:09:48.608Z,30.18
2022-08-03T11:12:22.206Z,30.16
2022-08-03T11:15:06.457Z,30.17
2022-08-03T11:17:46.338Z,30.19
2022-08-03T11:20:48.706Z,30.21
2022-08-03T11:23:19.718Z,30.25
2022-08-03T11:26:11.467Z,30.28
2022-08-03T11:28:40.170Z,30.27
2022-08-03T11:31:48.195Z,30.24
2022-08-03T11:34:13.006Z,30.26
2022-08-03T11:37:18.363Z,30.27
2022-08-03T11:39:47.715Z,30.25
2022-08-03T11:42:25.012Z,30.23
2022-08-03T11:44:54.970Z,30.24
2022-08-03T11:47:24.455Z,30.24
2022-08-03T11:49:56.015Z,30.25
2022-08-03T11:52:27.298Z,30.26
2022-08-03T11:54:56.562Z,30.27
2022-08-03T11:59:16.399Z,30.27
2022-08-03T12:00:20.894Z,30.34
2022-08-03T12:02:58.304Z,30.37
2022-08-03T12:05:42.323Z,30.35
2022-08-03T12:08:32.615Z,30.37
2022-08-03T12:11:04.637Z,30.38
2022-08-03T12:14:45.162Z,30.41
2022-08-03T12:16:32.120Z,30.43
2022-08-03T12:19:05.140Z,30.46
2022-08-03T12:21:33.129Z,30.45
2022-08-03T12:24:03.638Z,30.45
2022-08-03T12:26:58.179Z,30.45
2022-08-03T12:29:30.341Z,30.50
2022-08-03T12:31:58.247Z,30.53
2022-08-03T12:34:47.387Z,30.50
2022-08-03T12:37:22.462Z,30.52
2022-08-03T12:40:02.195Z,30.55
2022-08-03T12:42:35.473Z,30.55
2022-08-03T12:45:26.201Z,30.54
2022-08-03T12:47:54.706Z,30.52
2022-08-03T12:50:32.511Z,30.48
2022-08-03T12:53:03.467Z,30.45
2022-08-03T12:56:04.229Z,30.44
2022-08-03T12:58:50.567Z,30.47
2022-08-03T13:01:18.650Z,30.53
2022-08-03T13:03:50.162Z,30.54
2022-08-03T13:06:25.389Z,30.53
2022-08-03T13:09:07.216Z,30.54
2022-08-03T13:11:55.383Z,30.57
2022-08-03T13:14:23.703Z,30.66
2022-08-03T13:16:51.615Z,30.74
2022-08-03T13:19:19.433Z,30.72
2022-08-03T13:21:53.783Z,30.70
2022-08-03T13:24:33.743Z,30.71
2022-08-03T13:28:02.086Z,30.74
2022-08-03T13:29:51.279Z,30.81
2022-08-03T13:32:19.704Z,30.85
2022-08-03T13:34:47.714Z,30.85
2022-08-03T13:37:16.438Z,30.89
2022-08-03T13:39:57.725Z,30.93
2022-08-03T13:42:29.841Z,30.98
2022-08-03T13:44:58.167Z,31.02
2022-08-03T13:47:26.817Z,31.04
2022-08-03T13:50:01.090Z,31.07
2022-08-03T13:52:31.837Z,31.09
2022-08-03T13:55:00.300Z,31.12
2022-08-03T13:58:02.669Z,31.16
2022-08-03T14:00:27.093Z,31.31
2022-08-03T14:03:16.409Z,31.47
2022-08-03T14:05:44.390Z,31.53
2022-08-03T14:08:12.573Z,31.54
2022-08-03T14:10:43.189Z,31.54
2022-08-03T14:13:17.919Z,31.54
2022-08-03T14:15:51.044Z,31.55
2022-08-03T14:18:27.673Z,31.56
2022-08-03T14:21:01.946Z,31.51
2022-08-03T14:23:32.990Z,31.50
2022-08-03T14:26:01.139Z,31.47
2022-08-03T14:28:28.882Z,31.43
2022-08-03T14:30:56.631Z,31.43
2022-08-03T14:33:25.649Z,31.46
2022-08-03T14:35:53.750Z,31.43
2022-08-03T14:38:22.162Z,31.45
2022-08-03T14:40:51.382Z,31.47
2022-08-03T14:43:21.421Z,31.52
2022-08-03T14:45:53.808Z,31.54
2022-08-03T14:50:29.227Z,31.56
2022-08-03T14:51:10.543Z,31.64
2022-08-03T14:53:38.385Z,31.68
2022-08-03T14:56:10.196Z,31.68
2022-08-03T14:58:38.636Z,31.69
2022-08-03T15:02:02.977Z,31.69
2022-08-03T15:03:55.677Z,31.73
2022-08-03T15:06:24.430Z,31.77
2022-08-03T15:09:13.826Z,31.78
2022-08-03T15:11:40.146Z,31.82
2022-08-03T15:14:09.500Z,31.86
2022-08-03T15:16:38.738Z,31.85
2022-08-03T15:20:03.680Z,31.86
2022-08-03T15:24:45.476Z,31.99
2022-08-03T15:27:13.286Z,32.02
2022-08-03T15:30:06.954Z,32.00
2022-08-03T15:32:28.927Z,32.04
2022-08-03T15:34:57.508Z,32.08
2022-08-03T15:37:25.932Z,32.07
2022-08-03T15:39:59.203Z,32.05
2022-08-03T15:42:29.751Z,32.04
2022-08-03T15:44:57.465Z,32.08
2022-08-03T15:47:25.550Z,32.27
2022-08-03T15:49:53.263Z,32.64
2022-08-03T15:52:21.306Z,32.63
2022-08-03T15:54:49.466Z,32.48
2022-08-03T15:57:17.326Z,32.32
2022-08-03T15:59:45.197Z,32.19
2022-08-03T16:02:13.380Z,32.10
2022-08-03T16:04:41.441Z,31.98
2022-08-03T16:07:12.569Z,31.89
2022-08-03T16:09:42.379Z,31.81
2022-08-03T16:12:15.818Z,31.74
2022-08-03T16:14:53.849Z,31.69
2022-08-03T16:17:23.592Z,31.64
2022-08-03T16:19:54.726Z,31.59
2022-08-03T16:22:26.716Z,31.53
2022-08-03T16:24:54.960Z,31.47
2022-08-03T16:27:37.019Z,31.41
2022-08-03T16:30:12.874Z,31.38
2022-08-03T16:32:40.651Z,31.37
2022-08-03T16:35:09.066Z,31.31
2022-08-03T16:37:54.610Z,31.27
2022-08-03T16:40:25.402Z,31.24
2022-08-03T16:42:53.336Z,31.21
2022-08-03T16:45:21.247Z,31.17
2022-08-03T16:47:49.070Z,31.12
2022-08-03T16:50:34.279Z,31.10
2022-08-03T16:53:09.028Z,31.10
2022-08-03T16:55:43.368Z,31.06
2022-08-03T16:58:34.233Z,31.05
2022-08-03T17:01:22.350Z,31.06
2022-08-03T17:04:03.144Z,31.07
2022-08-03T17:06:35.279Z,31.06
2022-08-03T17:09:09.174Z,31.03
2022-08-03T17:11:43.850Z,30.98
2022-08-03T17:14:29.378Z,30.94
2022-08-03T17:17:01.657Z,30.92
2022-08-03T17:19:32.402Z,30.90
2022-08-03T17:22:04.886Z,30.88
2022-08-03T17:24:41.426Z,30.84
2022-08-03T17:28:41.743Z,30.84
2022-08-03T17:30:08.001Z,30.85
2022-08-03T17:32:42.735Z,30.86
2022-08-03T17:35:21.485Z,30.83
2022-08-03T17:37:58.446Z,30.81
2022-08-03T17:40:32.042Z,30.79
2022-08-03T17:43:00.683Z,30.77
2022-08-03T17:45:52.266Z,30.72
2022-08-03T17:48:18.686Z,30.74
2022-08-03T17:50:54.330Z,30.74
2022-08-03T17:53:31.193Z,30.71
2022-08-03T17:56:04.246Z,30.70
2022-08-03T17:58:39.678Z,30.68
2022-08-03T18:02:01.956Z,30.66
2022-08-03T18:04:29.905Z,30.70
2022-08-03T18:07:00.474Z,30.73
2022-08-03T18:10:03.698Z,30.70
2022-08-03T18:12:37.339Z,30.69
2022-08-03T18:15:08.690Z,30.66
2022-08-03T18:17:55.720Z,30.65
2022-08-03T18:20:41.208Z,30.63
2022-08-03T18:23:24.909Z,30.63
2022-08-03T18:26:02.384Z,30.63
2022-08-03T18:28:35.823Z,30.60
2022-08-03T18:31:05.754Z,30.56
2022-08-03T18:34:19.022Z,30.53
2022-08-03T18:36:29.991Z,30.54
2022-08-03T18:39:03.145Z,30.53
2022-08-03T18:41:34.693Z,30.55
2022-08-03T18:44:08.185Z,30.52
2022-08-03T18:46:41.075Z,30.51
2022-08-03T18:49:30.662Z,30.37
2022-08-03T18:52:12.162Z,30.25
2022-08-03T18:55:01.213Z,30.20
2022-08-03T18:57:46.549Z,30.24
2022-08-03T19:00:16.683Z,30.18
2022-08-03T19:02:56.586Z,30.11
2022-08-03T19:05:56.211Z,30.08
2022-08-03T19:08:20.367Z,30.10
2022-08-03T19:10:57.936Z,30.11
2022-08-03T19:13:50.381Z,30.06
2022-08-03T19:16:35.411Z,30.07
2022-08-03T19:19:10.368Z,30.08
2022-08-03T19:21:44.637Z,30.05
2022-08-03T19:24:14.163Z,30.01
2022-08-03T19:26:43.608Z,29.94
2022-08-03T19:29:17.700Z,29.90
2022-08-03T19:31:58.905Z,29.84
2022-08-03T19:34:30.835Z,29.84
2022-08-03T19:36:59.344Z,29.83
2022-08-03T19:39:27.589Z,29.77
2022-08-03T19:41:58.841Z,29.67
2022-08-03T19:44:40.928Z,29.69
2022-08-03T19:47:16.907Z,29.70
2022-08-03T19:50:14.293Z,29.78
2022-08-03T19:53:03.582Z,29.83
2022-08-03T19:55:34.306Z,29.83
2022-08-03T19:58:04.571Z,29.77
2022-08-03T20:00:36.743Z,29.69
2022-08-03T20:03:19.716Z,29.63
2022-08-03T20:05:51.999Z,29.61
2022-08-03T20:08:22.183Z,29.60
2022-08-03T20:10:51.222Z,29.56
2022-08-03T20:13:19.747Z,29.51
2022-08-03T20:15:47.680Z,29.45
2022-08-03T20:18:21.272Z,29.42
2022-08-03T20:20:52.775Z,29.40
2022-08-03T20:23:22.727Z,29.36
2022-08-03T20:25:57.321Z,29.32
2022-08-03T20:28:32.729Z,29.32
2022-08-03T20:31:02.156Z,29.34
2022-08-03T20:33:46.303Z,29.33
2022-08-03T20:36:18.580Z,29.34
2022-08-03T20:38:48.017Z,29.32
2022-08-03T20:41:17.206Z,29.29
2022-08-03T20:43:46.377Z,29.26
2022-08-03T20:46:32.035Z,29.26
2022-08-03T20:49:06.783Z,29.33
2022-08-03T20:51:50.697Z,29.30
2022-08-03T20:54:31.122Z,29.26
2022-08-03T20:57:13.872Z,29.30
2022-08-03T20:59:50.876Z,29.25
2022-08-03T21:02:29.705Z,29.17
2022-08-03T21:05:09.150Z,29.12
2022-08-03T21:08:06.014Z,29.04
2022-08-03T21:10:40.719Z,29.19
2022-08-03T21:13:34.004Z,29.20
2022-08-03T21:16:13.412Z,29.18
2022-08-03T21:18:49.304Z,29.16
2022-08-03T21:21:19.289Z,29.12
2022-08-03T21:23:54.786Z,29.05
2022-08-03T21:26:24.941Z,29.02
2022-08-03T21:28:55.127Z,28.97
2022-08-03T21:31:25.390Z,28.97
2022-08-03T21:33:57.394Z,28.96
2022-08-03T21:36:30.075Z,28.97
2022-08-03T21:38:59.184Z,28.96
2022-08-03T21:41:29.447Z,28.92
2022-08-03T21:43:58.196Z,28.94
2022-08-03T21:46:27.891Z,29.00
2022-08-03T21:50:07.081Z,29.21
2022-08-03T21:51:49.479Z,29.34
2022-08-03T21:54:20.369Z,29.34
2022-08-03T21:56:48.630Z,29.31
2022-08-03T21:59:18.717Z,29.31
2022-08-03T22:01:48.821Z,29.32
2022-08-03T22:04:50.445Z,29.38
2022-08-03T22:07:10.603Z,29.66
2022-08-03T22:09:38.401Z,29.81
2022-08-03T22:12:06.613Z,29.90
2022-08-03T22:14:34.350Z,29.99
2022-08-03T22:17:55.517Z,30.02
2022-08-03T22:20:15.817Z,30.07
2022-08-03T22:22:55.270Z,29.89
2022-08-03T22:25:31.751Z,29.79
2022-08-03T22:28:02.528Z,29.71
2022-08-03T22:30:31.763Z,29.62
2022-08-03T22:33:00.432Z,29.57
2022-08-03T22:35:28.404Z,29.52
2022-08-03T22:37:58.533Z,29.48
2022-08-03T22:40:27.878Z,29.45
2022-08-03T22:42:57.013Z,29.43
2022-08-03T22:46:06.206Z,29.40
2022-08-03T22:48:14.027Z,29.48
2022-08-03T22:50:44.123Z,29.47
2022-08-03T22:53:17.538Z,29.44
2022-08-03T22:55:49.644Z,29.43
2022-08-03T22:58:18.610Z,29.43
2022-08-03T23:00:58.657Z,29.40
2022-08-03T23:04:00.415Z,29.44
2022-08-03T23:06:21.922Z,29.54
2022-08-03T23:08:50.569Z,29.52
2022-08-03T23:11:21.067Z,29.46
2022-08-03T23:13:53.262Z,29.43
2022-08-03T23:16:28.577Z,29.42
2022-08-03T23:18:59.706Z,29.43
2022-08-03T23:21:53.466Z,29.42
2022-08-03T23:24:25.261Z,29.49
2022-08-03T23:26:59.262Z,29.53
2022-08-03T23:29:29.618Z,29.49
2022-08-03T23:31:58.171Z,29.46
2022-08-03T23:34:44.918Z,29.43
2022-08-03T23:37:17.196Z,29.42
2022-08-03T23:39:46.968Z,29.39
2022-08-03T23:42:17.567Z,29.40
2022-08-03T23:44:46.393Z,29.39
2022-08-03T23:47:14.391Z,29.39
2022-08-03T23:49:42.328Z,29.38
2022-08-03T23:52:21.985Z,29.36
2022-08-03T23:55:11.574Z,29.39
2022-08-03T23:58:10.777Z,29.42
